EXS7WR EGSS-EGNM
Flight info
| Callsign | EXS7WR |
|---|---|
| Flight time | 0h 33m |
| Altitude | 18000 |
| Route | UTAVA Q75 BUZAD T420 TNT N57 DENBY DCT LBA |
| Aircraft | A21N/M-SDE3FGHIRWY/LB1 |
Departure
| Time | 2026-05-04 20:02 |
|---|---|
| Airport | London Stansted Airport (EGSS) |
Arrival
| Time | 2026-05-04 20:36 |
|---|---|
| Airport | Leeds Bradford Airport (EGNM) |
| Time | Latitude | Longitude | Altitude | Speed | Heading |
|---|---|---|---|---|---|
| 2026-05-04 19:37 | 51.89579 | 0.26305 | 350 ft | 0 kts | 223° |
| 2026-05-04 19:50 | 51.89582 | 0.26309 | 357 ft | 3 kts | 224° |
| 2026-05-04 19:50 | 51.89598 | 0.26342 | 350 ft | 4 kts | 243° |
| 2026-05-04 19:51 | 51.89605 | 0.26381 | 360 ft | 4 kts | 278° |
| 2026-05-04 19:51 | 51.89599 | 0.26406 | 352 ft | 0 kts | 313° |
| 2026-05-04 19:54 | 51.89600 | 0.26403 | 350 ft | 1 kts | 313° |
| 2026-05-04 19:54 | 51.89613 | 0.26379 | 352 ft | 5 kts | 306° |
| 2026-05-04 19:54 | 51.89641 | 0.26323 | 350 ft | 8 kts | 311° |
| 2026-05-04 19:55 | 51.89689 | 0.26242 | 355 ft | 11 kts | 315° |
| 2026-05-04 19:55 | 51.89732 | 0.26135 | 356 ft | 12 kts | 265° |
| 2026-05-04 19:55 | 51.89675 | 0.26024 | 358 ft | 14 kts | 225° |
| 2026-05-04 19:55 | 51.89599 | 0.25911 | 359 ft | 16 kts | 223° |
| 2026-05-04 19:56 | 51.89516 | 0.25785 | 352 ft | 17 kts | 222° |
| 2026-05-04 19:56 | 51.89424 | 0.25645 | 351 ft | 19 kts | 222° |
| 2026-05-04 19:56 | 51.89323 | 0.25497 | 350 ft | 20 kts | 223° |
| 2026-05-04 19:56 | 51.89216 | 0.25336 | 353 ft | 22 kts | 223° |
| 2026-05-04 19:57 | 51.89103 | 0.25166 | 359 ft | 23 kts | 223° |
| 2026-05-04 19:57 | 51.89002 | 0.25015 | 356 ft | 19 kts | 223° |
| 2026-05-04 19:57 | 51.88903 | 0.24865 | 356 ft | 20 kts | 222° |
| 2026-05-04 19:57 | 51.88799 | 0.24711 | 349 ft | 20 kts | 224° |
| 2026-05-04 19:58 | 51.88691 | 0.24547 | 356 ft | 22 kts | 223° |
| 2026-05-04 19:58 | 51.88581 | 0.24381 | 349 ft | 21 kts | 222° |
| 2026-05-04 19:58 | 51.88489 | 0.24245 | 353 ft | 17 kts | 223° |
| 2026-05-04 19:58 | 51.88394 | 0.24104 | 347 ft | 20 kts | 223° |
| 2026-05-04 19:59 | 51.88288 | 0.23943 | 349 ft | 22 kts | 223° |
| 2026-05-04 19:59 | 51.88187 | 0.23791 | 355 ft | 20 kts | 223° |
| 2026-05-04 19:59 | 51.88099 | 0.23660 | 343 ft | 18 kts | 222° |
| 2026-05-04 19:59 | 51.88005 | 0.23520 | 347 ft | 17 kts | 223° |
| 2026-05-04 20:00 | 51.87928 | 0.23405 | 343 ft | 13 kts | 223° |
| 2026-05-04 20:00 | 51.87873 | 0.23323 | 346 ft | 10 kts | 222° |
| 2026-05-04 20:00 | 51.87813 | 0.23233 | 343 ft | 13 kts | 223° |
| 2026-05-04 20:00 | 51.87741 | 0.23121 | 346 ft | 14 kts | 235° |
| 2026-05-04 20:01 | 51.87756 | 0.22990 | 343 ft | 12 kts | 312° |
| 2026-05-04 20:01 | 51.87821 | 0.22878 | 346 ft | 15 kts | 314° |
| 2026-05-04 20:01 | 51.87896 | 0.22752 | 346 ft | 15 kts | 313° |
| 2026-05-04 20:01 | 51.87960 | 0.22684 | 347 ft | 11 kts | 17° |
| 2026-05-04 20:02 | 51.88029 | 0.22771 | 338 ft | 15 kts | 42° |
| 2026-05-04 20:02 | 51.88294 | 0.23167 | 339 ft | 96 kts | 43° |
| 2026-05-04 20:02 | 51.88966 | 0.24175 | 424 ft | 154 kts | 42° |
| 2026-05-04 20:02 | 51.89758 | 0.25371 | 1184 ft | 158 kts | 42° |
| 2026-05-04 20:03 | 51.90591 | 0.26620 | 1894 ft | 174 kts | 42° |
| 2026-05-04 20:03 | 51.91545 | 0.28046 | 2511 ft | 204 kts | 42° |
| 2026-05-04 20:03 | 51.92702 | 0.29675 | 3209 ft | 240 kts | 32° |
| 2026-05-04 20:03 | 51.94340 | 0.30483 | 4293 ft | 255 kts | 3° |
| 2026-05-04 20:04 | 51.96105 | 0.30001 | 5519 ft | 264 kts | 337° |
| 2026-05-04 20:04 | 51.97605 | 0.28231 | 6583 ft | 271 kts | 310° |
| 2026-05-04 20:04 | 51.98473 | 0.25513 | 7301 ft | 276 kts | 283° |
| 2026-05-04 20:04 | 51.98474 | 0.22427 | 7686 ft | 278 kts | 256° |
| 2026-05-04 20:05 | 51.97832 | 0.19460 | 7899 ft | 279 kts | 253° |
| 2026-05-04 20:05 | 51.97715 | 0.16346 | 7984 ft | 279 kts | 278° |
| 2026-05-04 20:05 | 51.98067 | 0.13245 | 8036 ft | 280 kts | 281° |
| 2026-05-04 20:05 | 51.98447 | 0.10156 | 8156 ft | 278 kts | 281° |
| 2026-05-04 20:06 | 51.98797 | 0.07051 | 9166 ft | 282 kts | 278° |
| 2026-05-04 20:06 | 51.98805 | 0.03850 | 10293 ft | 289 kts | 265° |
| 2026-05-04 20:06 | 51.98563 | 0.00505 | 11158 ft | 311 kts | 263° |
| 2026-05-04 20:06 | 51.98273 | -0.03152 | 11651 ft | 343 kts | 263° |
| 2026-05-04 20:07 | 51.97959 | -0.07146 | 11912 ft | 364 kts | 263° |
| 2026-05-04 20:07 | 51.97642 | -0.11226 | 12017 ft | 365 kts | 263° |
| 2026-05-04 20:07 | 51.97333 | -0.15257 | 12209 ft | 364 kts | 263° |
| 2026-05-04 20:07 | 51.97021 | -0.19343 | 13122 ft | 369 kts | 263° |
| 2026-05-04 20:08 | 51.96702 | -0.23514 | 14184 ft | 374 kts | 263° |
| 2026-05-04 20:08 | 51.96378 | -0.27716 | 15207 ft | 379 kts | 262° |
| 2026-05-04 20:08 | 51.96046 | -0.31981 | 16154 ft | 384 kts | 262° |
| 2026-05-04 20:08 | 51.95710 | -0.36310 | 17023 ft | 390 kts | 262° |
| 2026-05-04 20:09 | 51.95368 | -0.40708 | 17639 ft | 395 kts | 262° |
| 2026-05-04 20:09 | 51.95046 | -0.45148 | 17926 ft | 397 kts | 265° |
| 2026-05-04 20:09 | 51.95157 | -0.49639 | 18022 ft | 407 kts | 279° |
| 2026-05-04 20:09 | 51.96031 | -0.54061 | 18064 ft | 416 kts | 295° |
| 2026-05-04 20:10 | 51.97655 | -0.57923 | 18077 ft | 417 kts | 312° |
| 2026-05-04 20:10 | 51.99884 | -0.60926 | 18082 ft | 417 kts | 327° |
| 2026-05-04 20:10 | 52.02374 | -0.63353 | 18084 ft | 418 kts | 329° |
| 2026-05-04 20:10 | 52.04877 | -0.65734 | 18090 ft | 417 kts | 329° |
| 2026-05-04 20:11 | 52.07372 | -0.68144 | 18084 ft | 416 kts | 328° |
| 2026-05-04 20:11 | 52.09820 | -0.70536 | 18078 ft | 416 kts | 328° |
| 2026-05-04 20:11 | 52.12297 | -0.72969 | 18077 ft | 416 kts | 328° |
| 2026-05-04 20:11 | 52.14777 | -0.75408 | 18069 ft | 416 kts | 328° |
| 2026-05-04 20:12 | 52.17238 | -0.77835 | 18056 ft | 412 kts | 328° |
| 2026-05-04 20:12 | 52.19689 | -0.80261 | 18051 ft | 412 kts | 328° |
| 2026-05-04 20:12 | 52.22140 | -0.82691 | 18050 ft | 412 kts | 328° |
| 2026-05-04 20:12 | 52.24590 | -0.85121 | 18050 ft | 412 kts | 328° |
| 2026-05-04 20:13 | 52.27036 | -0.87546 | 18051 ft | 412 kts | 328° |
| 2026-05-04 20:13 | 52.29481 | -0.89978 | 18051 ft | 412 kts | 328° |
| 2026-05-04 20:13 | 52.31923 | -0.92408 | 18051 ft | 412 kts | 328° |
| 2026-05-04 20:13 | 52.34377 | -0.94851 | 18051 ft | 411 kts | 328° |
| 2026-05-04 20:14 | 52.36818 | -0.97286 | 18050 ft | 412 kts | 328° |
| 2026-05-04 20:14 | 52.39266 | -0.99734 | 18050 ft | 412 kts | 328° |
| 2026-05-04 20:14 | 52.41684 | -1.02159 | 18050 ft | 412 kts | 328° |
| 2026-05-04 20:14 | 52.44124 | -1.04601 | 18050 ft | 412 kts | 328° |
| 2026-05-04 20:15 | 52.46572 | -1.07046 | 18051 ft | 412 kts | 328° |
| 2026-05-04 20:15 | 52.49013 | -1.09504 | 18051 ft | 411 kts | 328° |
| 2026-05-04 20:15 | 52.51453 | -1.11958 | 18050 ft | 411 kts | 328° |
| 2026-05-04 20:15 | 52.53897 | -1.14415 | 18050 ft | 411 kts | 328° |
| 2026-05-04 20:16 | 52.55516 | -1.16046 | 18050 ft | 411 kts | 328° |
| 2026-05-04 20:16 | 52.57985 | -1.18536 | 18050 ft | 411 kts | 328° |
| 2026-05-04 20:16 | 52.60396 | -1.20964 | 18050 ft | 411 kts | 328° |
| 2026-05-04 20:16 | 52.62834 | -1.23425 | 18050 ft | 411 kts | 328° |
| 2026-05-04 20:17 | 52.65275 | -1.25898 | 18051 ft | 411 kts | 328° |
| 2026-05-04 20:17 | 52.67707 | -1.28363 | 18051 ft | 411 kts | 328° |
| 2026-05-04 20:17 | 52.70148 | -1.30835 | 18051 ft | 411 kts | 328° |
| 2026-05-04 20:17 | 52.72575 | -1.33315 | 18051 ft | 410 kts | 327° |
| 2026-05-04 20:18 | 52.75000 | -1.35795 | 18050 ft | 410 kts | 327° |
| 2026-05-04 20:18 | 52.77431 | -1.38278 | 18049 ft | 410 kts | 327° |
| 2026-05-04 20:18 | 52.79861 | -1.40761 | 18049 ft | 410 kts | 327° |
| 2026-05-04 20:18 | 52.82290 | -1.43245 | 18050 ft | 410 kts | 328° |
| 2026-05-04 20:19 | 52.84725 | -1.45726 | 18050 ft | 410 kts | 328° |
| 2026-05-04 20:19 | 52.87153 | -1.48207 | 18050 ft | 410 kts | 327° |
| 2026-05-04 20:19 | 52.89574 | -1.50693 | 18051 ft | 410 kts | 327° |
| 2026-05-04 20:19 | 52.91999 | -1.53192 | 18053 ft | 410 kts | 327° |
| 2026-05-04 20:20 | 52.94430 | -1.55691 | 18052 ft | 410 kts | 327° |
| 2026-05-04 20:20 | 52.96824 | -1.58159 | 18051 ft | 410 kts | 327° |
| 2026-05-04 20:20 | 52.99251 | -1.60661 | 18049 ft | 410 kts | 327° |
| 2026-05-04 20:20 | 53.01667 | -1.63159 | 18049 ft | 410 kts | 327° |
| 2026-05-04 20:21 | 53.04088 | -1.65662 | 18049 ft | 410 kts | 328° |
| 2026-05-04 20:21 | 53.06631 | -1.67812 | 18047 ft | 411 kts | 338° |
| 2026-05-04 20:21 | 53.11992 | -1.71128 | 18052 ft | 410 kts | 339° |
| 2026-05-04 20:22 | 53.14670 | -1.72771 | 18051 ft | 410 kts | 339° |
| 2026-05-04 20:22 | 53.17350 | -1.74428 | 18057 ft | 410 kts | 339° |
| 2026-05-04 20:22 | 53.20025 | -1.76096 | 18058 ft | 410 kts | 339° |
| 2026-05-04 20:22 | 53.22691 | -1.77757 | 18054 ft | 408 kts | 339° |
| 2026-05-04 20:23 | 53.25320 | -1.79394 | 18057 ft | 405 kts | 339° |
| 2026-05-04 20:23 | 53.27897 | -1.80997 | 17605 ft | 388 kts | 339° |
| 2026-05-04 20:23 | 53.30410 | -1.82567 | 16815 ft | 383 kts | 339° |
| 2026-05-04 20:23 | 53.32892 | -1.84128 | 15978 ft | 380 kts | 339° |
| 2026-05-04 20:24 | 53.35354 | -1.85675 | 15166 ft | 375 kts | 339° |
| 2026-05-04 20:24 | 53.37780 | -1.87196 | 14381 ft | 370 kts | 339° |
| 2026-05-04 20:24 | 53.40182 | -1.88705 | 13605 ft | 366 kts | 339° |
| 2026-05-04 20:24 | 53.42554 | -1.90198 | 12819 ft | 362 kts | 339° |
| 2026-05-04 20:25 | 53.44900 | -1.91677 | 12056 ft | 359 kts | 339° |
| 2026-05-04 20:25 | 53.47217 | -1.93139 | 11495 ft | 350 kts | 339° |
| 2026-05-04 20:25 | 53.49449 | -1.94529 | 11196 ft | 334 kts | 340° |
| 2026-05-04 20:25 | 53.51673 | -1.95298 | 10899 ft | 322 kts | 358° |
| 2026-05-04 20:26 | 53.53823 | -1.94622 | 10645 ft | 310 kts | 21° |
| 2026-05-04 20:26 | 53.55699 | -1.93030 | 10456 ft | 297 kts | 28° |
| 2026-05-04 20:26 | 53.57489 | -1.91382 | 10128 ft | 290 kts | 27° |
| 2026-05-04 20:26 | 53.59231 | -1.89798 | 9708 ft | 287 kts | 27° |
| 2026-05-04 20:27 | 53.60990 | -1.88214 | 9252 ft | 285 kts | 27° |
| 2026-05-04 20:27 | 53.62732 | -1.86650 | 8822 ft | 283 kts | 27° |
| 2026-05-04 20:27 | 53.64465 | -1.85105 | 8388 ft | 281 kts | 27° |
| 2026-05-04 20:27 | 53.66183 | -1.83573 | 7965 ft | 279 kts | 27° |
| 2026-05-04 20:28 | 53.67881 | -1.82062 | 7638 ft | 272 kts | 27° |
| 2026-05-04 20:28 | 53.69520 | -1.80600 | 7345 ft | 261 kts | 27° |
| 2026-05-04 20:28 | 53.71058 | -1.79139 | 7049 ft | 247 kts | 36° |
| 2026-05-04 20:28 | 53.72123 | -1.77009 | 6766 ft | 232 kts | 65° |
| 2026-05-04 20:29 | 53.72549 | -1.74467 | 6503 ft | 219 kts | 79° |
| 2026-05-04 20:29 | 53.72780 | -1.71983 | 6262 ft | 211 kts | 85° |
| 2026-05-04 20:29 | 53.72805 | -1.69539 | 6013 ft | 206 kts | 90° |
| 2026-05-04 20:29 | 53.72788 | -1.67136 | 5702 ft | 204 kts | 90° |
| 2026-05-04 20:30 | 53.72769 | -1.64740 | 5346 ft | 205 kts | 90° |
| 2026-05-04 20:30 | 53.72753 | -1.62330 | 4980 ft | 204 kts | 90° |
| 2026-05-04 20:30 | 53.72740 | -1.59984 | 4725 ft | 196 kts | 90° |
| 2026-05-04 20:30 | 53.72731 | -1.57687 | 4393 ft | 195 kts | 90° |
| 2026-05-04 20:31 | 53.72723 | -1.55399 | 4032 ft | 195 kts | 90° |
| 2026-05-04 20:31 | 53.72719 | -1.53105 | 3664 ft | 195 kts | 90° |
| 2026-05-04 20:31 | 53.72953 | -1.50864 | 3271 ft | 196 kts | 65° |
| 2026-05-04 20:31 | 53.73865 | -1.49256 | 3006 ft | 188 kts | 27° |
| 2026-05-04 20:32 | 53.75063 | -1.49102 | 2956 ft | 169 kts | 341° |
| 2026-05-04 20:32 | 53.76077 | -1.50051 | 2981 ft | 167 kts | 323° |
| 2026-05-04 20:32 | 53.76948 | -1.51301 | 2987 ft | 166 kts | 317° |
| 2026-05-04 20:32 | 53.77812 | -1.52603 | 2895 ft | 166 kts | 317° |
| 2026-05-04 20:33 | 53.78639 | -1.53853 | 2698 ft | 152 kts | 316° |
| 2026-05-04 20:33 | 53.79377 | -1.54997 | 2378 ft | 138 kts | 316° |
| 2026-05-04 20:33 | 53.80064 | -1.56060 | 2260 ft | 132 kts | 316° |
| 2026-05-04 20:33 | 53.80749 | -1.57098 | 2149 ft | 132 kts | 316° |
| 2026-05-04 20:34 | 53.81428 | -1.58138 | 1952 ft | 131 kts | 316° |
| 2026-05-04 20:34 | 53.82102 | -1.59169 | 1745 ft | 130 kts | 316° |
| 2026-05-04 20:34 | 53.82772 | -1.60197 | 1551 ft | 129 kts | 316° |
| 2026-05-04 20:34 | 53.83436 | -1.61210 | 1381 ft | 128 kts | 316° |
| 2026-05-04 20:35 | 53.84090 | -1.62218 | 1218 ft | 128 kts | 316° |
| 2026-05-04 20:35 | 53.84749 | -1.63230 | 1051 ft | 128 kts | 316° |
| 2026-05-04 20:35 | 53.85405 | -1.64243 | 877 ft | 128 kts | 316° |
| 2026-05-04 20:35 | 53.86069 | -1.65249 | 726 ft | 128 kts | 317° |
| 2026-05-04 20:36 | 53.86713 | -1.66243 | 673 ft | 113 kts | 317° |
| 2026-05-04 20:36 | 53.87021 | -1.66717 | 681 ft | 19 kts | 317° |
| 2026-05-04 20:36 | 53.87073 | -1.66782 | 683 ft | 5 kts | 264° |
| 2026-05-04 20:36 | 53.87039 | -1.66751 | 680 ft | 8 kts | 133° |
| 2026-05-04 20:37 | 53.86992 | -1.66678 | 678 ft | 10 kts | 138° |
| 2026-05-04 20:37 | 53.86966 | -1.66568 | 677 ft | 13 kts | 59° |
| 2026-05-04 20:37 | 53.86990 | -1.66427 | 678 ft | 12 kts | 109° |
| 2026-05-04 20:37 | 53.86943 | -1.66289 | 671 ft | 15 kts | 126° |
| 2026-05-04 20:38 | 53.86861 | -1.66161 | 672 ft | 19 kts | 137° |
| 2026-05-04 20:38 | 53.86816 | -1.66012 | 671 ft | 16 kts | 92° |
| 2026-05-04 20:38 | 53.86813 | -1.65810 | 671 ft | 19 kts | 90° |
| 2026-05-04 20:38 | 53.86816 | -1.65631 | 669 ft | 13 kts | 91° |
| 2026-05-04 20:39 | 53.86831 | -1.65552 | 670 ft | 5 kts | 15° |
| 2026-05-04 20:39 | 53.86874 | -1.65549 | 671 ft | 3 kts | 1° |
| 2026-05-04 20:39 | 53.86878 | -1.65549 | 671 ft | 0 kts | 0° |